Time;durP1;ratioP1;P1;durP2;ratioP2;P2;SDS_P1;SDS_P2;PMS_P1;PMS_P2;Temp;Humidity;BMP_temperature;BMP_pressure;BME280_temperature;BME280_humidity;BME280_pressure;Samples;Min_cycle;Max_cycle;Signal;HPM_P1;HPM_P2
2023/09/11 00:01:54;;;;;;;11.30;9.90;;;;;;;19.21;87.84;96873.48;109185;1266;89384;-82
2023/09/11 00:04:31;;;;;;;13.90;10.10;;;;;;;19.21;87.87;96870.39;109238;1271;25498;-83
2023/09/11 00:07:05;;;;;;;12.50;9.50;;;;;;;19.21;87.95;96867.35;109228;1266;24234;-83
2023/09/11 00:09:41;;;;;;;13.30;9.60;;;;;;;19.25;88.01;96868.48;109242;1271;23708;-82
2023/09/11 00:12:12;;;;;;;12.90;9.20;;;;;;;19.30;87.89;96869.83;109223;1266;22517;-83
2023/09/11 00:14:46;;;;;;;12.80;9.60;;;;;;;19.31;87.59;96865.08;109249;1272;24151;-83
2023/09/11 00:17:17;;;;;;;12.70;9.60;;;;;;;19.27;87.45;96866.70;109261;1256;22555;-82
2023/09/11 00:19:48;;;;;;;14.00;9.30;;;;;;;19.26;87.46;96865.66;109184;1271;28274;-83
2023/09/11 00:22:19;;;;;;;14.00;9.70;;;;;;;19.26;87.47;96862.21;109288;1271;22627;-82
2023/09/11 00:24:50;;;;;;;11.30;8.50;;;;;;;19.24;87.28;96861.44;109255;1271;22507;-82
2023/09/11 00:27:21;;;;;;;13.00;9.60;;;;;;;19.21;87.33;96859.10;109277;1266;24088;-82
2023/09/11 00:29:52;;;;;;;12.00;9.10;;;;;;;19.18;87.19;96857.70;109181;1263;27270;-82
2023/09/11 00:32:23;;;;;;;10.20;9.00;;;;;;;19.15;87.20;96859.21;109238;1269;22517;-83
2023/09/11 00:34:54;;;;;;;11.50;9.00;;;;;;;19.13;87.23;96857.23;109309;1267;22539;-83
2023/09/11 00:37:25;;;;;;;12.50;9.30;;;;;;;19.09;87.18;96855.89;109260;1264;22530;-83
2023/09/11 00:39:56;;;;;;;11.50;8.70;;;;;;;19.07;87.27;96851.58;109200;1264;75394;-83
2023/09/11 00:42:28;;;;;;;9.80;8.80;;;;;;;19.04;87.17;96852.80;109214;1271;25139;-83
2023/09/11 00:45:02;;;;;;;11.90;9.20;;;;;;;19.00;87.23;96854.62;109103;1266;22586;-83
2023/09/11 00:47:36;;;;;;;13.20;9.40;;;;;;;18.97;87.21;96850.94;109263;1266;22511;-83
2023/09/11 00:50:12;;;;;;;11.90;9.50;;;;;;;18.95;87.21;96847.63;109078;1270;52942;-83
2023/09/11 00:52:47;;;;;;;12.80;9.30;;;;;;;18.94;87.32;96849.41;109245;1266;23292;-83
2023/09/11 00:55:22;;;;;;;10.80;9.50;;;;;;;18.92;87.27;96844.75;109227;1272;22647;-83
2023/09/11 00:57:59;;;;;;;12.60;9.20;;;;;;;18.91;87.37;96842.27;109234;1272;22968;-83
2023/09/11 01:00:30;;;;;;;12.20;9.60;;;;;;;18.91;87.46;96842.42;109205;1269;22557;-83
2023/09/11 01:03:06;;;;;;;13.50;9.20;;;;;;;18.91;87.37;96838.66;109151;1266;23115;-83
2023/09/11 01:05:38;;;;;;;12.30;9.40;;;;;;;18.91;87.46;96837.94;109223;1272;22535;-83
2023/09/11 01:08:12;;;;;;;13.50;10.20;;;;;;;18.89;87.25;96834.79;109220;1263;23062;-83
2023/09/11 01:10:45;;;;;;;12.00;10.00;;;;;;;18.87;87.39;96835.50;107824;1266;1768338;-83
2023/09/11 01:13:16;;;;;;;12.40;8.80;;;;;;;18.86;87.40;96832.40;109257;1265;22500;-83
2023/09/11 01:15:54;;;;;;;11.90;9.30;;;;;;;18.85;87.52;96828.66;109221;1266;22511;-83
2023/09/11 01:18:35;;;;;;;12.10;8.50;;;;;;;18.85;87.29;96830.02;109262;1271;26442;-83
2023/09/11 01:21:42;;;;;;;11.70;9.30;;;;;;;18.84;87.39;96829.69;109128;1267;62145;-83
2023/09/11 01:24:46;;;;;;;12.60;8.90;;;;;;;18.85;87.33;96831.09;109168;1269;22983;-83
2023/09/11 01:27:39;;;;;;;12.50;10.10;;;;;;;18.84;87.29;96829.84;108956;1272;22534;-83
2023/09/11 01:30:13;;;;;;;14.90;9.50;;;;;;;18.84;87.25;96826.14;109193;1265;22874;-83
2023/09/11 01:32:45;;;;;;;13.10;9.60;;;;;;;18.83;87.22;96826.98;109209;1272;22542;-83
2023/09/11 01:35:16;;;;;;;9.90;8.70;;;;;;;18.85;87.39;96825.88;109182;1266;22641;-83
2023/09/11 01:37:49;;;;;;;10.30;8.80;;;;;;;18.86;87.28;96824.52;109095;1260;22522;-83
2023/09/11 01:40:22;;;;;;;10.40;9.30;;;;;;;18.84;87.14;96822.79;109134;1272;27312;-83
2023/09/11 01:43:03;;;;;;;12.40;9.20;;;;;;;18.82;87.08;96821.30;109333;1271;22591;-83
2023/09/11 01:45:36;;;;;;;10.50;8.50;;;;;;;18.80;87.12;96821.12;109245;1269;22931;-83
2023/09/11 01:48:10;;;;;;;12.80;8.70;;;;;;;18.79;87.20;96820.81;109260;1271;26449;-83
2023/09/11 01:50:42;;;;;;;12.20;8.70;;;;;;;18.79;87.10;96818.67;109193;1271;55219;-83
2023/09/11 01:53:13;;;;;;;11.10;9.00;;;;;;;18.76;87.12;96817.11;109191;1263;22544;-83
2023/09/11 01:55:45;;;;;;;9.50;7.90;;;;;;;18.75;87.14;96814.17;109183;1266;23346;-83
2023/09/11 01:58:16;;;;;;;10.00;8.70;;;;;;;18.73;86.99;96817.23;109232;1271;23865;-82
2023/09/11 02:00:47;;;;;;;11.10;8.70;;;;;;;18.69;86.97;96815.37;109231;1271;51361;-83
2023/09/11 02:03:19;;;;;;;14.20;9.10;;;;;;;18.67;87.16;96813.77;109239;1266;23969;-83
2023/09/11 02:05:50;;;;;;;13.40;9.00;;;;;;;18.66;87.11;96814.73;109236;1263;22642;-82
2023/09/11 02:08:22;;;;;;;11.00;7.60;;;;;;;18.64;87.20;96809.83;109268;1272;22555;-83
2023/09/11 02:10:54;;;;;;;12.40;8.60;;;;;;;18.64;87.25;96807.89;109207;1271;22522;-83
2023/09/11 02:13:24;;;;;;;10.70;8.60;;;;;;;18.65;87.39;96807.70;109197;1264;22553;-83
2023/09/11 02:15:55;;;;;;;13.60;8.60;;;;;;;18.62;87.28;96809.74;109250;1271;23822;-83
2023/09/11 02:18:26;;;;;;;10.60;8.70;;;;;;;18.61;87.47;96805.98;109223;1271;23791;-82
2023/09/11 02:21:00;;;;;;;10.40;8.90;;;;;;;18.61;87.34;96809.21;109232;1272;58281;-83
2023/09/11 02:23:31;;;;;;;10.60;7.80;;;;;;;18.59;87.34;96810.08;109229;1266;22511;-83
2023/09/11 02:26:04;;;;;;;9.10;8.10;;;;;;;18.58;87.26;96808.77;109221;1271;26882;-83
2023/09/11 02:28:35;;;;;;;11.70;8.80;;;;;;;18.57;87.37;96805.67;109250;1271;25498;-82
2023/09/11 02:31:09;;;;;;;11.40;8.50;;;;;;;18.56;87.35;96803.72;109201;1268;45873;-83
2023/09/11 02:33:40;;;;;;;9.60;8.20;;;;;;;18.55;87.31;96807.14;109317;1271;22481;-82
2023/09/11 02:36:11;;;;;;;10.90;8.80;;;;;;;18.54;87.23;96804.40;109265;1272;22553;-83
2023/09/11 02:38:42;;;;;;;12.70;9.30;;;;;;;18.53;87.27;96802.90;109290;1271;25282;-82
2023/09/11 02:41:13;;;;;;;10.70;8.40;;;;;;;18.51;87.12;96802.75;109207;1271;22587;-82
2023/09/11 02:43:44;;;;;;;10.60;8.20;;;;;;;18.51;87.16;96803.89;109266;1267;24140;-83
2023/09/11 02:46:15;;;;;;;10.50;8.20;;;;;;;18.49;87.05;96808.35;109236;1266;22634;-83
2023/09/11 02:48:50;;;;;;;9.60;8.40;;;;;;;18.47;87.03;96808.81;109253;1271;26434;-83
2023/09/11 02:51:21;;;;;;;9.90;8.20;;;;;;;18.45;87.02;96810.44;109205;1271;22769;-83
2023/09/11 02:53:52;;;;;;;10.60;8.40;;;;;;;18.43;86.98;96807.37;109190;1266;22546;-82
2023/09/11 02:56:23;;;;;;;10.10;8.10;;;;;;;18.42;86.98;96810.45;109233;1271;22517;-83
2023/09/11 02:58:54;;;;;;;10.90;8.70;;;;;;;18.41;86.90;96806.96;109253;1271;23784;-83
2023/09/11 03:01:25;;;;;;;11.20;8.80;;;;;;;18.40;86.81;96805.86;109211;1271;22533;-83
2023/09/11 03:03:56;;;;;;;9.80;8.10;;;;;;;18.41;86.69;96807.18;109350;1271;22460;-83
2023/09/11 03:06:32;;;;;;;9.10;7.70;;;;;;;18.42;86.70;96806.52;109213;1266;22572;-82
2023/09/11 03:09:05;;;;;;;11.40;7.70;;;;;;;18.41;86.64;96807.11;109270;1271;25414;-82
2023/09/11 03:11:38;;;;;;;9.90;8.70;;;;;;;18.42;86.63;96808.66;109206;1272;60815;-82
2023/09/11 03:14:11;;;;;;;10.40;8.60;;;;;;;18.40;86.58;96809.23;109236;1271;22551;-82
2023/09/11 03:16:43;;;;;;;10.90;8.30;;;;;;;18.39;86.53;96807.75;109148;1269;22508;-82
2023/09/11 03:19:15;;;;;;;11.90;8.30;;;;;;;18.37;86.44;96807.30;109237;1272;22511;-82
2023/09/11 03:21:45;;;;;;;12.90;8.80;;;;;;;18.35;86.41;96805.61;109168;1271;22660;-82
2023/09/11 03:24:16;;;;;;;8.40;7.50;;;;;;;18.36;86.43;96810.25;109231;1271;23869;-82
2023/09/11 03:26:48;;;;;;;11.70;8.30;;;;;;;18.36;86.27;96815.59;109201;1266;22528;-82
2023/09/11 03:29:19;;;;;;;10.70;8.90;;;;;;;18.33;86.25;96817.09;109244;1265;27484;-81
2023/09/11 03:31:50;;;;;;;12.00;8.20;;;;;;;18.31;86.16;96817.55;109243;1266;22514;-82
2023/09/11 03:34:22;;;;;;;9.60;8.40;;;;;;;18.27;86.08;96816.53;109114;1249;243794;-82
2023/09/11 03:36:53;;;;;;;8.90;8.00;;;;;;;18.23;86.03;96816.02;109199;1271;25313;-82
2023/09/11 03:39:24;;;;;;;9.70;8.70;;;;;;;18.21;85.96;96815.45;109240;1271;22622;-82
2023/09/11 03:41:55;;;;;;;10.50;8.30;;;;;;;18.18;85.94;96810.84;109112;1272;22507;-82
2023/09/11 03:44:29;;;;;;;10.10;8.50;;;;;;;18.18;85.99;96812.48;109237;1266;23830;-82
2023/09/11 03:47:02;;;;;;;9.40;8.20;;;;;;;18.17;85.89;96811.98;109216;1272;22694;-82
2023/09/11 03:49:35;;;;;;;10.20;8.20;;;;;;;18.18;85.87;96816.11;109253;1271;23341;-82
2023/09/11 03:52:06;;;;;;;9.50;8.20;;;;;;;18.20;85.77;96811.42;109221;1267;33020;-82
2023/09/11 03:54:38;;;;;;;11.40;8.40;;;;;;;18.20;85.76;96814.33;109205;1272;25386;-82
2023/09/11 03:57:09;;;;;;;8.90;7.90;;;;;;;18.19;85.77;96813.08;109222;1272;22515;-82
2023/09/11 03:59:42;;;;;;;10.90;8.40;;;;;;;18.18;85.66;96815.64;109182;1272;22551;-82
2023/09/11 04:02:13;;;;;;;10.80;8.00;;;;;;;18.13;85.69;96810.15;109227;1271;22515;-82
2023/09/11 04:04:44;;;;;;;10.80;8.30;;;;;;;18.09;85.74;96806.25;109228;1272;22504;-82
2023/09/11 04:07:16;;;;;;;9.90;8.00;;;;;;;18.03;85.66;96799.88;109228;1269;22738;-82
2023/09/11 04:09:47;;;;;;;9.20;8.20;;;;;;;18.01;85.80;96801.00;109234;1269;22931;-82
2023/09/11 04:12:18;;;;;;;9.50;8.30;;;;;;;18.03;85.91;96802.84;109199;1269;24201;-82
2023/09/11 04:14:50;;;;;;;8.50;7.70;;;;;;;18.05;85.91;96799.11;109180;1266;23740;-82
2023/09/11 04:17:21;;;;;;;9.50;7.90;;;;;;;18.05;85.76;96799.40;109218;1272;22517;-82
2023/09/11 04:19:53;;;;;;;14.60;8.60;;;;;;;18.03;85.60;96794.04;109212;1269;45172;-82
2023/09/11 04:22:24;;;;;;;11.20;8.80;;;;;;;18.02;85.70;96794.38;109180;1267;22515;-82
2023/09/11 04:24:55;;;;;;;10.60;8.30;;;;;;;18.09;85.79;96797.80;109237;1266;22571;-82
2023/09/11 04:27:27;;;;;;;8.80;7.50;;;;;;;18.14;85.56;96797.73;109210;1265;22543;-82
2023/09/11 04:30:00;;;;;;;9.70;8.10;;;;;;;18.19;85.44;96793.81;109221;1269;22616;-82
2023/09/11 04:32:35;;;;;;;10.20;7.60;;;;;;;18.28;85.37;96786.51;109200;1272;22542;-82
2023/09/11 04:35:08;;;;;;;10.20;7.80;;;;;;;18.41;85.31;96784.89;109196;1271;24164;-82
2023/09/11 04:37:39;;;;;;;12.10;7.50;;;;;;;18.56;84.96;96783.29;109190;1271;22551;-82
2023/09/11 04:40:13;;;;;;;8.40;6.70;;;;;;;18.68;84.74;96787.01;109148;1272;22552;-82
2023/09/11 04:42:45;;;;;;;9.20;7.60;;;;;;;18.82;84.35;96790.16;109214;1269;25746;-82
2023/09/11 04:45:16;;;;;;;8.80;7.30;;;;;;;18.93;83.94;96790.34;109196;1271;24146;-82
2023/09/11 04:47:47;;;;;;;9.80;7.50;;;;;;;19.07;83.70;96785.11;109280;1269;23668;-83
2023/09/11 04:50:19;;;;;;;8.60;6.90;;;;;;;19.20;83.39;96784.20;109202;1270;22509;-83
2023/09/11 04:52:50;;;;;;;8.40;7.40;;;;;;;19.35;83.08;96780.27;109241;1269;22561;-82
2023/09/11 04:55:21;;;;;;;11.30;7.40;;;;;;;19.44;82.48;96778.23;109174;1271;23780;-82
2023/09/11 04:57:52;;;;;;;7.60;6.60;;;;;;;19.53;82.14;96781.91;109184;1266;22511;-83
2023/09/11 05:00:27;;;;;;;7.90;6.60;;;;;;;19.57;81.57;96778.64;109137;1269;121374;-82
2023/09/11 05:03:05;;;;;;;8.70;6.90;;;;;;;19.65;81.37;96776.65;109165;1250;22511;-81
2023/09/11 05:05:40;;;;;;;10.00;6.70;;;;;;;19.72;80.91;96777.13;109205;1272;26421;-82
2023/09/11 05:08:14;;;;;;;9.30;6.90;;;;;;;19.77;80.62;96776.93;109219;1268;22646;-81
2023/09/11 05:10:46;;;;;;;8.30;6.80;;;;;;;19.85;80.40;96775.88;108882;1266;22560;-81
2023/09/11 05:13:17;;;;;;;10.00;6.30;;;;;;;19.91;80.10;96775.16;108914;1272;25210;-81
2023/09/11 05:15:49;;;;;;;9.10;6.60;;;;;;;19.98;79.92;96777.02;108863;1272;22541;-81
2023/09/11 05:18:20;;;;;;;7.80;7.00;;;;;;;20.10;79.71;96773.55;108826;1265;25281;-81
2023/09/11 05:20:51;;;;;;;8.00;6.30;;;;;;;20.25;79.43;96776.72;108853;1269;23904;-80
2023/09/11 05:23:24;;;;;;;8.90;6.90;;;;;;;20.40;78.89;96773.98;108878;1269;22511;-80
2023/09/11 05:25:55;;;;;;;8.00;6.50;;;;;;;20.56;78.54;96773.10;108866;1267;23845;-80
2023/09/11 05:28:30;;;;;;;9.90;6.50;;;;;;;20.69;78.08;96773.11;108881;1272;25434;-80
2023/09/11 05:31:05;;;;;;;7.00;5.90;;;;;;;20.78;77.59;96776.13;108867;1269;22509;-80
2023/09/11 05:33:36;;;;;;;8.30;6.90;;;;;;;20.91;77.30;96773.13;108861;1272;22636;-80
2023/09/11 05:36:08;;;;;;;8.50;6.30;;;;;;;20.98;76.64;96775.34;108899;1271;23853;-81
2023/09/11 05:38:39;;;;;;;8.00;6.00;;;;;;;21.03;76.32;96776.73;108880;1267;25256;-80
2023/09/11 05:41:10;;;;;;;8.90;6.60;;;;;;;21.09;76.06;96778.52;108841;1258;22817;-81
2023/09/11 05:43:41;;;;;;;10.00;6.40;;;;;;;21.20;75.83;96781.20;108849;1272;22530;-82
2023/09/11 05:46:13;;;;;;;7.30;6.30;;;;;;;21.21;75.17;96780.31;108908;1272;24160;-81
2023/09/11 05:48:44;;;;;;;8.20;6.10;;;;;;;21.19;75.01;96784.73;108876;1272;22511;-81
2023/09/11 05:51:15;;;;;;;7.90;6.70;;;;;;;21.29;74.96;96781.58;108852;1267;22578;-81
2023/09/11 05:53:46;;;;;;;7.90;6.20;;;;;;;21.51;74.82;96781.24;108880;1268;25243;-81
2023/09/11 05:56:18;;;;;;;6.70;5.90;;;;;;;21.57;74.18;96776.55;108899;1271;25246;-81
2023/09/11 05:58:49;;;;;;;9.10;6.80;;;;;;;21.56;73.59;96772.60;108865;1269;25469;-81
2023/09/11 06:01:20;;;;;;;7.10;6.40;;;;;;;21.62;73.58;96774.44;108871;1272;24158;-81
2023/09/11 06:03:51;;;;;;;7.30;6.00;;;;;;;21.72;73.09;96771.56;108869;1272;24057;-81
2023/09/11 06:06:22;;;;;;;7.30;6.00;;;;;;;21.74;72.83;96776.92;108882;1269;22734;-81
2023/09/11 06:08:54;;;;;;;7.90;6.20;;;;;;;21.81;72.67;96777.79;108750;1269;23172;-81
2023/09/11 06:11:25;;;;;;;7.40;6.00;;;;;;;21.82;72.30;96775.52;108773;1271;26610;-82
2023/09/11 06:13:57;;;;;;;8.50;6.50;;;;;;;21.86;72.22;96773.93;108845;1271;25418;-81
2023/09/11 06:16:30;;;;;;;8.50;6.60;;;;;;;21.80;71.79;96776.30;108776;1263;22518;-81
2023/09/11 06:19:03;;;;;;;7.10;6.40;;;;;;;21.82;71.97;96770.73;108953;1271;26430;-81
2023/09/11 06:21:34;;;;;;;14.10;12.10;;;;;;;21.84;71.66;96771.24;108997;1271;23785;-81
2023/09/11 06:24:08;;;;;;;8.90;6.90;;;;;;;21.91;71.70;96773.27;108984;1267;22498;-82
2023/09/11 06:26:42;;;;;;;7.90;6.30;;;;;;;21.91;71.04;96769.70;108897;1272;22559;-83
2023/09/11 06:29:14;;;;;;;7.50;6.30;;;;;;;21.86;70.91;96773.69;108911;1271;25407;-82
2023/09/11 06:31:45;;;;;;;7.90;6.00;;;;;;;21.84;70.42;96767.70;108895;1272;22534;-81
2023/09/11 06:34:16;;;;;;;7.20;6.30;;;;;;;21.88;70.60;96770.27;108963;1271;23996;-81
2023/09/11 06:36:47;;;;;;;9.10;6.20;;;;;;;21.96;70.49;96771.70;108921;1272;22507;-80
2023/09/11 06:39:19;;;;;;;7.90;6.10;;;;;;;21.98;70.20;96772.59;108964;1271;22797;-80
2023/09/11 06:41:50;;;;;;;7.80;6.20;;;;;;;22.04;69.90;96773.08;108862;1269;22512;-80
2023/09/11 06:44:21;;;;;;;8.70;6.30;;;;;;;22.08;69.79;96774.56;108952;1263;26439;-80
2023/09/11 06:46:53;;;;;;;9.00;5.70;;;;;;;22.17;69.68;96771.95;108925;1272;24175;-78
2023/09/11 06:49:24;;;;;;;7.50;6.10;;;;;;;22.24;69.26;96769.24;108906;1266;22518;-79
2023/09/11 06:51:56;;;;;;;9.10;5.50;;;;;;;22.16;68.74;96770.06;108913;1272;25469;-79
2023/09/11 06:54:30;;;;;;;7.20;6.20;;;;;;;22.20;68.96;96771.55;108904;1271;22514;-79
2023/09/11 06:57:01;;;;;;;6.50;5.90;;;;;;;22.31;68.73;96773.27;108888;1271;22507;-80
2023/09/11 06:59:35;;;;;;;8.10;6.00;;;;;;;22.37;68.52;96773.50;108843;1265;25945;-79
2023/09/11 07:02:06;;;;;;;8.50;6.00;;;;;;;22.47;68.48;96772.40;108928;1248;22509;-79
2023/09/11 07:04:38;;;;;;;6.60;5.80;;;;;;;22.55;68.01;96769.73;108923;1271;22706;-79
2023/09/11 07:07:09;;;;;;;7.60;5.70;;;;;;;22.62;68.31;96770.27;108872;1271;22680;-79
2023/09/11 07:09:40;;;;;;;9.90;6.00;;;;;;;22.76;68.02;96767.56;108820;1269;22752;-79
2023/09/11 07:12:11;;;;;;;7.60;5.60;;;;;;;22.89;67.83;96765.10;108801;1269;22689;-78
2023/09/11 07:14:44;;;;;;;7.90;6.40;;;;;;;22.97;67.72;96766.81;108876;1254;22558;-78
2023/09/11 07:17:16;;;;;;;6.30;5.70;;;;;;;23.11;67.34;96771.59;108843;1265;22534;-78
2023/09/11 07:19:48;;;;;;;7.40;6.00;;;;;;;23.11;67.08;96770.59;108839;1269;22502;-78
2023/09/11 07:22:19;;;;;;;7.20;5.80;;;;;;;23.16;66.89;96768.37;108881;1263;22515;-78
2023/09/11 07:24:51;;;;;;;11.10;6.50;;;;;;;23.27;66.64;96769.90;108895;1269;22511;-78
2023/09/11 07:27:26;;;;;;;5.90;5.30;;;;;;;23.37;66.45;96773.03;108905;1272;22514;-77
2023/09/11 07:30:05;;;;;;;7.10;6.00;;;;;;;23.52;66.21;96767.60;108864;1269;22504;-78
2023/09/11 07:32:39;;;;;;;6.70;5.60;;;;;;;23.69;65.92;96763.54;108909;1264;25112;-78
2023/09/11 07:35:10;;;;;;;6.90;6.20;;;;;;;23.81;65.78;96755.56;108892;1269;23835;-78
2023/09/11 07:37:44;;;;;;;10.80;5.60;;;;;;;23.83;65.34;96754.27;108912;1271;22515;-78
2023/09/11 07:40:15;;;;;;;6.40;5.60;;;;;;;23.87;65.20;96751.86;108862;1272;22517;-78
2023/09/11 07:42:46;;;;;;;8.60;5.80;;;;;;;23.89;64.73;96753.98;108873;1269;24888;-79
2023/09/11 07:45:17;;;;;;;6.50;5.70;;;;;;;23.99;64.95;96753.85;108735;1269;22812;-79
2023/09/11 07:47:48;;;;;;;6.00;5.30;;;;;;;24.09;64.43;96751.08;108789;1270;23276;-78
2023/09/11 07:50:19;;;;;;;7.30;5.50;;;;;;;24.12;63.96;96752.44;108855;1267;22566;-78
2023/09/11 07:52:53;;;;;;;7.30;5.80;;;;;;;24.21;63.93;96751.98;108876;1249;22528;-78
2023/09/11 07:55:24;;;;;;;8.30;6.30;;;;;;;24.33;63.61;96750.30;108894;1269;22511;-78
2023/09/11 07:57:55;;;;;;;6.50;5.80;;;;;;;24.36;63.21;96749.82;108821;1269;25329;-78
2023/09/11 08:00:30;;;;;;;9.00;5.90;;;;;;;24.39;63.20;96746.23;108849;1266;23496;-80
2023/09/11 08:03:03;;;;;;;6.70;5.80;;;;;;;24.43;63.37;96742.73;108891;1272;23262;-80
2023/09/11 08:05:34;;;;;;;11.00;5.70;;;;;;;24.50;63.39;96743.60;108851;1272;25417;-80
2023/09/11 08:08:05;;;;;;;7.30;5.80;;;;;;;24.59;63.09;96742.95;108877;1272;22504;-80
2023/09/11 08:10:36;;;;;;;7.10;6.00;;;;;;;24.65;62.84;96743.13;108843;1264;22519;-79
2023/09/11 08:13:12;;;;;;;9.30;6.70;;;;;;;24.71;62.71;96744.29;108860;1272;22523;-79
2023/09/11 08:15:43;;;;;;;8.20;6.00;;;;;;;24.78;62.49;96743.15;108895;1269;22518;-79
2023/09/11 08:18:14;;;;;;;7.70;5.60;;;;;;;24.89;62.97;96741.05;108901;1264;22508;-80
2023/09/11 08:20:46;;;;;;;8.70;5.90;;;;;;;24.96;62.89;96741.06;108844;1272;23773;-79
2023/09/11 08:23:21;;;;;;;6.40;5.80;;;;;;;25.08;62.82;96742.32;108934;1272;22505;-79
2023/09/11 08:25:56;;;;;;;8.40;5.70;;;;;;;25.21;62.62;96741.54;108830;1272;24311;-79
2023/09/11 08:28:30;;;;;;;7.20;5.80;;;;;;;25.30;62.26;96743.73;108867;1272;25286;-79
2023/09/11 08:31:03;;;;;;;8.70;5.80;;;;;;;25.39;62.18;96744.45;108818;1272;22618;-79
2023/09/11 08:33:35;;;;;;;7.60;5.90;;;;;;;25.48;62.18;96742.30;108878;1254;22519;-79
2023/09/11 08:36:09;;;;;;;7.40;6.20;;;;;;;25.55;61.66;96742.30;108870;1267;24229;-79
2023/09/11 08:38:44;;;;;;;8.40;5.70;;;;;;;25.59;61.32;96743.12;108923;1272;22507;-79
2023/09/11 08:41:19;;;;;;;6.60;5.90;;;;;;;25.67;61.26;96747.09;108910;1272;22543;-80
2023/09/11 08:43:50;;;;;;;6.80;6.00;;;;;;;25.69;60.95;96746.89;108969;1270;22598;-79
2023/09/11 08:46:24;;;;;;;9.30;5.70;;;;;;;25.70;60.69;96747.21;108916;1263;22514;-79
2023/09/11 08:48:59;;;;;;;6.80;5.40;;;;;;;25.79;60.77;96744.05;108878;1269;23739;-79
2023/09/11 08:51:38;;;;;;;8.40;6.00;;;;;;;25.84;60.48;96745.17;108908;1272;22537;-79
2023/09/11 08:54:12;;;;;;;7.50;5.60;;;;;;;25.85;60.37;96745.27;108852;1269;22642;-79
2023/09/11 08:56:47;;;;;;;8.90;6.00;;;;;;;25.92;60.20;96744.33;108877;1272;22511;-78
2023/09/11 08:59:22;;;;;;;7.40;5.80;;;;;;;25.95;60.24;96743.73;108851;1272;25427;-79
2023/09/11 09:01:55;;;;;;;7.30;5.80;;;;;;;25.94;60.31;96740.61;108833;1269;23707;-79
2023/09/11 09:04:29;;;;;;;8.60;5.60;;;;;;;25.91;60.00;96742.31;108882;1267;22516;-78
2023/09/11 09:07:01;;;;;;;6.10;5.50;;;;;;;25.83;60.24;96738.11;108827;1269;24064;-78
2023/09/11 09:09:34;;;;;;;7.00;6.30;;;;;;;25.76;60.18;96739.13;108889;1267;22528;-78
2023/09/11 09:12:11;;;;;;;7.80;5.80;;;;;;;25.76;60.40;96734.48;108868;1269;22537;-79
2023/09/11 09:14:46;;;;;;;6.60;5.90;;;;;;;25.89;60.97;96737.15;108959;1272;25421;-79
2023/09/11 09:17:17;;;;;;;6.50;5.60;;;;;;;26.03;61.02;96737.36;108892;1272;22555;-78
2023/09/11 09:19:48;;;;;;;8.80;5.70;;;;;;;26.08;60.29;96733.82;108818;1272;29273;-79
2023/09/11 09:22:19;;;;;;;7.10;5.10;;;;;;;25.98;59.91;96732.73;108904;1272;23111;-79
2023/09/11 09:24:55;;;;;;;9.40;5.60;;;;;;;25.97;59.97;96727.52;108934;1272;22538;-78
2023/09/11 09:27:28;;;;;;;6.90;5.30;;;;;;;25.98;59.67;96724.83;108835;1272;23813;-79
2023/09/11 09:30:02;;;;;;;7.80;6.00;;;;;;;25.98;60.01;96724.04;108855;1272;24045;-78
2023/09/11 09:32:36;;;;;;;7.60;5.20;;;;;;;26.02;59.86;96719.42;108880;1272;22791;-79
2023/09/11 09:35:09;;;;;;;9.40;6.30;;;;;;;26.00;59.52;96716.60;108848;1270;25265;-78
2023/09/11 09:37:42;;;;;;;6.60;5.60;;;;;;;25.99;59.54;96719.30;108887;1270;22508;-78
2023/09/11 09:40:14;;;;;;;6.20;5.60;;;;;;;26.05;59.03;96718.42;108826;1272;22504;-79
2023/09/11 09:42:44;;;;;;;6.80;5.50;;;;;;;26.11;59.17;96715.52;108892;1272;22518;-79
2023/09/11 09:45:30;;;;;;;7.60;6.20;;;;;;;26.15;58.61;96712.28;108949;1272;24221;-79
2023/09/11 09:48:11;;;;;;;7.70;5.90;;;;;;;26.10;58.82;96713.41;108914;1272;22563;-79
2023/09/11 09:50:57;;;;;;;9.00;5.80;;;;;;;26.17;59.03;96712.69;108864;1272;27324;-79
2023/09/11 09:53:36;;;;;;;8.90;6.60;;;;;;;26.26;59.07;96709.59;108891;1269;22983;-80
2023/09/11 09:56:08;;;;;;;8.50;7.20;;;;;;;26.25;58.99;96710.58;108929;1272;22535;-79
2023/09/11 09:58:41;;;;;;;8.60;7.00;;;;;;;26.15;58.05;96705.84;108896;1263;22616;-80
2023/09/11 10:01:13;;;;;;;9.20;6.80;;;;;;;26.01;57.76;96703.26;108849;1272;22524;-79
2023/09/11 10:03:46;;;;;;;7.50;6.70;;;;;;;26.00;57.83;96698.58;108856;1269;22512;-79
2023/09/11 10:06:19;;;;;;;6.70;5.90;;;;;;;25.96;57.54;96695.84;108913;1272;23965;-79
2023/09/11 10:09:07;;;;;;;8.30;6.90;;;;;;;25.94;57.07;96698.92;108862;1272;22520;-80
2023/09/11 10:11:41;;;;;;;6.30;5.70;;;;;;;25.88;56.74;96699.34;108880;1272;24992;-80
2023/09/11 10:14:14;;;;;;;6.60;5.10;;;;;;;25.83;56.25;96695.89;108944;1270;22547;-80
2023/09/11 10:16:45;;;;;;;8.20;6.10;;;;;;;25.77;55.62;96697.77;108904;1272;22507;-80
2023/09/11 10:19:19;;;;;;;8.50;5.90;;;;;;;25.74;56.00;96696.51;108868;1271;22526;-80
2023/09/11 10:21:50;;;;;;;7.00;5.20;;;;;;;25.87;56.41;96698.25;108922;1253;23780;-80
2023/09/11 10:24:21;;;;;;;8.60;6.00;;;;;;;25.98;56.29;96694.46;108929;1272;22529;-80
2023/09/11 10:27:02;;;;;;;6.10;5.20;;;;;;;26.00;55.68;96701.23;108810;1270;26517;-80
2023/09/11 10:29:46;;;;;;;6.50;5.50;;;;;;;25.96;55.23;96695.06;108912;1267;22721;-81
2023/09/11 10:32:23;;;;;;;6.80;5.60;;;;;;;25.99;55.17;96692.76;108902;1271;22513;-79
2023/09/11 10:34:55;;;;;;;9.00;6.60;;;;;;;26.05;55.23;96690.17;108861;1269;22671;-81
2023/09/11 10:37:32;;;;;;;6.50;5.70;;;;;;;26.07;55.38;96689.41;108855;1269;22519;-80
2023/09/11 10:40:05;;;;;;;6.90;5.70;;;;;;;26.04;55.22;96684.98;108892;1270;22511;-80
2023/09/11 10:42:36;;;;;;;7.80;6.00;;;;;;;25.98;54.88;96679.17;108920;1272;22526;-80
2023/09/11 10:45:25;;;;;;;6.90;5.90;;;;;;;25.90;55.03;96677.16;108879;1272;23744;-80
2023/09/11 10:47:56;;;;;;;7.10;5.90;;;;;;;25.88;55.26;96677.13;108917;1271;23969;-79
2023/09/11 10:50:38;;;;;;;8.10;6.20;;;;;;;25.85;55.07;96675.58;108931;1264;22659;-80
2023/09/11 10:53:13;;;;;;;7.70;6.30;;;;;;;25.81;54.99;96677.02;108890;1271;22510;-80
2023/09/11 10:55:45;;;;;;;7.00;5.90;;;;;;;25.78;54.84;96677.70;108946;1272;22553;-80
2023/09/11 10:58:16;;;;;;;6.70;6.00;;;;;;;25.83;55.15;96675.02;108926;1272;22507;-80
2023/09/11 11:00:47;;;;;;;6.70;5.20;;;;;;;25.90;55.33;96669.80;108904;1270;24225;-81
2023/09/11 11:03:19;;;;;;;9.50;6.30;;;;;;;25.95;55.22;96668.68;108942;1272;22524;-80
2023/09/11 11:05:50;;;;;;;7.80;7.00;;;;;;;26.01;55.42;96667.23;108913;1267;22530;-80
2023/09/11 11:08:21;;;;;;;6.20;5.50;;;;;;;26.07;55.26;96668.52;108935;1270;22505;-80
2023/09/11 11:11:02;;;;;;;7.00;5.90;;;;;;;26.14;55.23;96667.33;108929;1271;22544;-81
2023/09/11 11:13:38;;;;;;;7.70;5.80;;;;;;;26.17;55.21;96664.61;108901;1272;22512;-81
2023/09/11 11:16:28;;;;;;;7.10;5.60;;;;;;;26.21;55.42;96667.77;108861;1257;22542;-80
2023/09/11 11:19:00;;;;;;;8.00;6.70;;;;;;;26.24;55.52;96664.44;108826;1268;22554;-80
2023/09/11 11:21:47;;;;;;;7.60;6.00;;;;;;;26.26;55.58;96671.67;108844;1267;22563;-80
2023/09/11 11:24:18;;;;;;;8.00;5.70;;;;;;;26.29;55.14;96669.05;108893;1272;22520;-80
2023/09/11 11:26:49;;;;;;;8.00;6.10;;;;;;;26.29;55.16;96667.20;108807;1270;22532;-80
2023/09/11 11:29:21;;;;;;;7.40;5.40;;;;;;;26.19;54.83;96665.67;108872;1266;22566;-80
2023/09/11 11:31:54;;;;;;;8.80;7.00;;;;;;;26.23;54.99;96659.48;108905;1272;22515;-80
2023/09/11 11:34:31;;;;;;;7.30;6.60;;;;;;;26.23;54.90;96661.56;109265;1272;24423;-81
2023/09/11 11:37:11;;;;;;;7.50;6.20;;;;;;;26.21;54.74;96660.71;109227;1272;22579;-82
2023/09/11 11:39:44;;;;;;;9.10;6.10;;;;;;;26.24;54.59;96659.41;109243;1267;22553;-82
2023/09/11 11:42:17;;;;;;;6.90;6.20;;;;;;;26.34;55.00;96658.62;109202;1272;22616;-82
2023/09/11 11:44:49;;;;;;;8.40;6.20;;;;;;;26.42;55.03;96655.80;109274;1272;22537;-82
2023/09/11 11:47:20;;;;;;;9.20;6.80;;;;;;;26.45;54.71;96652.55;109256;1271;22745;-82
2023/09/11 11:49:53;;;;;;;8.30;6.30;;;;;;;26.53;55.27;96654.16;109222;1267;24359;-82